Historique des mesures à Cassis (13260), France
Quotidien Résumé Mai 21, 2018 Unités:  Métrique    US   Métrique/US
« Précédent (Jour)
Suivant (Jour) »
Quotidien Hebdomadaire Mensuel Annuel Période au choix
  Maximum: Minimum: Moyenne:
Température: TemperatureC °C 17.3 °C 20.3 °C
Point de rosée: DewpointC °C 10.9 °C 12.7 °C
Humidité: Humidity % 50 % 59 %
Vitesse du vent: 0 km/h 0 km/h 3.2 km/h
Rafales: 0 km/h - -
Vent:- - South
Pression: PressurehPa hPa 1007.3 hPa -
Précipitations: 0.0 mm    
Historical Graphs
 
 
Mesures pour : Mai 21, 2018
Heure Temperature Point de rosée Pression Vent Vitesse du vent Rafales Humidité Pluie (par heure) Conditions
TemperatureC °C DewpointC °C PressurehPa hPa Calm     Humidity % HourlyPrecipMM mm SoftwareType W/m2
00:11 18.4 °C 12.4 °C 1010.4 hPa Calm   2.9 km/h 68 % 0.0 mm open2300-1.11 W/m2
01:11 17.8 °C 12.1 °C 1010.4 hPa NW 14.5 km/h 14.5 km/h 69 % 0.0 mm open2300-1.11 W/m2
02:11 17.5 °C 11.8 °C 1009.7 hPa NW 7.6 km/h 7.6 km/h 69 % 0.0 mm open2300-1.11 W/m2
03:10 17.4 °C 11.7 °C 1009.0 hPa West 3.4 km/h 8.9 km/h 69 % 0.0 mm open2300-1.11 W/m2
04:10 17.3 °C 11.6 °C 1008.7 hPa NNW 3.4 km/h 6.4 km/h 69 % 0.0 mm open2300-1.11 W/m2
05:10 17.4 °C 11.2 °C 1008.7 hPa North 3.4 km/h 3.4 km/h 67 % 0.0 mm open2300-1.11 W/m2
06:10 17.6 °C 10.9 °C 1008.4 hPa Calm   2.3 km/h 65 % 0.0 mm open2300-1.11 W/m2
07:10 18.1 °C 11.4 °C 1009.0 hPa NNW 2.9 km/h 2.9 km/h 65 % 0.0 mm open2300-1.11 W/m2
08:10 19.8 °C 12.5 °C 1009.0 hPa NE 2.9 km/h 2.9 km/h 63 % 0.0 mm open2300-1.11 W/m2
09:10 20.4 °C 13.1 °C 1009.0 hPa Calm     63 % 0.0 mm open2300-1.11 W/m2
10:10 22.4 °C 13.4 °C 1008.7 hPa SE 7.6 km/h 7.6 km/h 57 % 0.0 mm open2300-1.11 W/m2
11:10 23.9 °C 14.0 °C 1008.7 hPa Calm   6.9 km/h 54 % 0.0 mm open2300-1.11 W/m2
12:10 26.2 °C 15.6 °C 1008.7 hPa South 14 km/h 17.4 km/h 52 % 0.0 mm open2300-1.11 W/m2
13:10 26.4 °C 16.6 °C 1008.4 hPa ENE 2.3 km/h 9.3 km/h 55 % 0.0 mm open2300-1.11 W/m2
14:11 26.1 °C 14.9 °C 1008.0 hPa ENE 2.3 km/h 6.4 km/h 50 % 0.0 mm open2300-1.11 W/m2
15:11 23.9 °C 13.7 °C 1008.0 hPa Calm   3.4 km/h 53 % 0.0 mm open2300-1.11 W/m2
16:11 25.2 °C 14.3 °C 1008.0 hPa SSE 8.9 km/h 8.9 km/h 51 % 0.0 mm open2300-1.11 W/m2
17:11 22.9 °C 14.4 °C 1007.3 hPa Calm   5.6 km/h 59 % 0.0 mm open2300-1.11 W/m2
18:11 23.4 °C 14.6 °C 1007.3 hPa ESE 9.3 km/h 9.3 km/h 58 % 0.0 mm open2300-1.11 W/m2
19:11 22.7 °C 14.0 °C 1007.7 hPa Calm   8 km/h 58 % 0.0 mm open2300-1.11 W/m2
20:11 21.5 °C 13.2 °C 1007.7 hPa Calm     59 % 0.0 mm open2300-1.11 W/m2
21:11 21.0 °C 13.7 °C 1007.3 hPa Calm     63 % 0.0 mm open2300-1.11 W/m2
22:11 19.8 °C 13.5 °C 1007.3 hPa Calm     67 % 0.0 mm open2300-1.11 W/m2
23:11 19.6 °C 13.5 °C 1008.0 hPa Calm     68 % 0.0 mm open2300-1.11 W/m2
Observations météo à CASSIS
WU-History script by Weather Underground - 1 mb